sensor_id;sensor_type;location;lat;lon;timestamp;P1;durP1;ratioP1;P2;durP2;ratioP2
21769;SDS011;11046;49.558;8.674;2023-07-02T00:01:34;2.55;;;2.25;;
21769;SDS011;11046;49.558;8.674;2023-07-02T00:04:34;5.35;;;2.30;;
21769;SDS011;11046;49.558;8.674;2023-07-02T00:07:35;4.97;;;2.30;;
21769;SDS011;11046;49.558;8.674;2023-07-02T00:10:36;3.00;;;2.42;;
21769;SDS011;11046;49.558;8.674;2023-07-02T00:13:36;2.65;;;2.13;;
21769;SDS011;11046;49.558;8.674;2023-07-02T00:16:38;2.85;;;2.10;;
21769;SDS011;11046;49.558;8.674;2023-07-02T00:19:40;2.78;;;2.40;;
21769;SDS011;11046;49.558;8.674;2023-07-02T00:22:41;3.38;;;2.00;;
21769;SDS011;11046;49.558;8.674;2023-07-02T00:25:44;3.35;;;2.33;;
21769;SDS011;11046;49.558;8.674;2023-07-02T00:28:45;6.20;;;2.33;;
21769;SDS011;11046;49.558;8.674;2023-07-02T00:31:45;8.90;;;2.55;;
21769;SDS011;11046;49.558;8.674;2023-07-02T00:34:46;2.90;;;2.17;;
21769;SDS011;11046;49.558;8.674;2023-07-02T00:37:46;3.80;;;2.60;;
21769;SDS011;11046;49.558;8.674;2023-07-02T00:40:47;3.67;;;2.33;;
21769;SDS011;11046;49.558;8.674;2023-07-02T00:43:48;4.70;;;2.25;;
21769;SDS011;11046;49.558;8.674;2023-07-02T00:46:49;3.85;;;2.47;;
21769;SDS011;11046;49.558;8.674;2023-07-02T00:49:50;6.55;;;2.42;;
21769;SDS011;11046;49.558;8.674;2023-07-02T00:52:50;4.88;;;3.20;;
21769;SDS011;11046;49.558;8.674;2023-07-02T00:55:53;7.18;;;3.13;;
21769;SDS011;11046;49.558;8.674;2023-07-02T00:58:54;4.57;;;2.20;;
21769;SDS011;11046;49.558;8.674;2023-07-02T01:01:58;3.88;;;2.72;;
21769;SDS011;11046;49.558;8.674;2023-07-02T01:04:59;5.90;;;2.67;;
21769;SDS011;11046;49.558;8.674;2023-07-02T01:07:59;4.13;;;2.80;;
21769;SDS011;11046;49.558;8.674;2023-07-02T01:11:00;3.78;;;2.80;;
21769;SDS011;11046;49.558;8.674;2023-07-02T01:14:04;4.78;;;2.97;;
21769;SDS011;11046;49.558;8.674;2023-07-02T01:17:09;5.32;;;2.90;;
21769;SDS011;11046;49.558;8.674;2023-07-02T01:20:10;7.22;;;2.90;;
21769;SDS011;11046;49.558;8.674;2023-07-02T01:23:12;6.45;;;3.08;;
21769;SDS011;11046;49.558;8.674;2023-07-02T01:26:14;8.93;;;3.42;;
21769;SDS011;11046;49.558;8.674;2023-07-02T01:29:18;4.93;;;3.25;;
21769;SDS011;11046;49.558;8.674;2023-07-02T01:32:20;4.45;;;3.00;;
21769;SDS011;11046;49.558;8.674;2023-07-02T01:35:23;3.58;;;2.85;;
21769;SDS011;11046;49.558;8.674;2023-07-02T01:38:23;5.30;;;2.92;;
21769;SDS011;11046;49.558;8.674;2023-07-02T01:41:24;13.10;;;3.10;;
21769;SDS011;11046;49.558;8.674;2023-07-02T01:44:25;5.75;;;3.00;;
21769;SDS011;11046;49.558;8.674;2023-07-02T01:47:26;5.00;;;3.20;;
21769;SDS011;11046;49.558;8.674;2023-07-02T01:50:26;6.13;;;3.25;;
21769;SDS011;11046;49.558;8.674;2023-07-02T01:53:27;5.18;;;3.00;;
21769;SDS011;11046;49.558;8.674;2023-07-02T01:56:27;6.10;;;3.00;;
21769;SDS011;11046;49.558;8.674;2023-07-02T01:59:28;7.32;;;2.80;;
21769;SDS011;11046;49.558;8.674;2023-07-02T02:02:29;3.55;;;2.67;;
21769;SDS011;11046;49.558;8.674;2023-07-02T02:05:29;8.45;;;3.03;;
21769;SDS011;11046;49.558;8.674;2023-07-02T02:08:30;3.72;;;2.55;;
21769;SDS011;11046;49.558;8.674;2023-07-02T02:11:34;5.97;;;2.70;;
21769;SDS011;11046;49.558;8.674;2023-07-02T02:14:39;6.00;;;2.80;;
21769;SDS011;11046;49.558;8.674;2023-07-02T02:17:40;4.65;;;2.78;;
21769;SDS011;11046;49.558;8.674;2023-07-02T02:20:40;10.00;;;2.58;;
21769;SDS011;11046;49.558;8.674;2023-07-02T02:23:41;3.55;;;2.50;;
21769;SDS011;11046;49.558;8.674;2023-07-02T02:26:41;5.78;;;2.30;;
21769;SDS011;11046;49.558;8.674;2023-07-02T02:29:42;7.50;;;2.60;;
21769;SDS011;11046;49.558;8.674;2023-07-02T02:32:43;5.63;;;2.55;;
21769;SDS011;11046;49.558;8.674;2023-07-02T02:35:45;4.05;;;2.60;;
21769;SDS011;11046;49.558;8.674;2023-07-02T02:38:47;4.75;;;3.00;;
21769;SDS011;11046;49.558;8.674;2023-07-02T02:41:48;8.75;;;2.90;;
21769;SDS011;11046;49.558;8.674;2023-07-02T02:44:53;7.25;;;3.40;;
21769;SDS011;11046;49.558;8.674;2023-07-02T02:47:54;6.65;;;3.30;;
21769;SDS011;11046;49.558;8.674;2023-07-02T02:50:54;7.63;;;3.47;;
21769;SDS011;11046;49.558;8.674;2023-07-02T02:53:55;12.02;;;3.28;;
21769;SDS011;11046;49.558;8.674;2023-07-02T02:56:55;13.70;;;2.83;;
21769;SDS011;11046;49.558;8.674;2023-07-02T02:59:56;6.97;;;3.10;;
21769;SDS011;11046;49.558;8.674;2023-07-02T03:02:57;4.53;;;2.90;;
21769;SDS011;11046;49.558;8.674;2023-07-02T03:05:58;5.82;;;3.15;;
21769;SDS011;11046;49.558;8.674;2023-07-02T03:08:59;5.68;;;2.83;;
21769;SDS011;11046;49.558;8.674;2023-07-02T03:12:00;5.32;;;2.80;;
21769;SDS011;11046;49.558;8.674;2023-07-02T03:15:00;6.35;;;2.72;;
21769;SDS011;11046;49.558;8.674;2023-07-02T03:18:01;6.82;;;3.28;;
21769;SDS011;11046;49.558;8.674;2023-07-02T03:21:01;7.07;;;3.40;;
21769;SDS011;11046;49.558;8.674;2023-07-02T03:24:02;6.60;;;3.17;;
21769;SDS011;11046;49.558;8.674;2023-07-02T03:27:03;8.32;;;3.88;;
21769;SDS011;11046;49.558;8.674;2023-07-02T03:30:04;10.60;;;3.60;;
21769;SDS011;11046;49.558;8.674;2023-07-02T03:33:05;10.07;;;4.40;;
21769;SDS011;11046;49.558;8.674;2023-07-02T03:36:06;11.45;;;5.55;;
21769;SDS011;11046;49.558;8.674;2023-07-02T03:39:06;9.77;;;4.57;;
21769;SDS011;11046;49.558;8.674;2023-07-02T03:42:07;9.98;;;5.15;;
21769;SDS011;11046;49.558;8.674;2023-07-02T03:45:08;10.15;;;4.70;;
21769;SDS011;11046;49.558;8.674;2023-07-02T03:48:08;10.45;;;4.80;;
21769;SDS011;11046;49.558;8.674;2023-07-02T03:51:09;8.45;;;4.65;;
21769;SDS011;11046;49.558;8.674;2023-07-02T03:54:12;9.38;;;4.90;;
21769;SDS011;11046;49.558;8.674;2023-07-02T03:57:13;10.80;;;4.60;;
21769;SDS011;11046;49.558;8.674;2023-07-02T04:00:13;8.98;;;4.03;;
21769;SDS011;11046;49.558;8.674;2023-07-02T04:03:17;12.10;;;4.40;;
21769;SDS011;11046;49.558;8.674;2023-07-02T04:06:18;10.35;;;5.07;;
21769;SDS011;11046;49.558;8.674;2023-07-02T04:09:19;12.05;;;5.25;;
21769;SDS011;11046;49.558;8.674;2023-07-02T04:12:19;8.68;;;4.80;;
21769;SDS011;11046;49.558;8.674;2023-07-02T04:15:20;9.45;;;4.78;;
21769;SDS011;11046;49.558;8.674;2023-07-02T04:18:21;15.02;;;4.90;;
21769;SDS011;11046;49.558;8.674;2023-07-02T04:21:21;12.20;;;4.88;;
21769;SDS011;11046;49.558;8.674;2023-07-02T04:24:22;8.48;;;4.50;;
21769;SDS011;11046;49.558;8.674;2023-07-02T04:27:22;10.35;;;4.80;;
21769;SDS011;11046;49.558;8.674;2023-07-02T04:30:23;11.25;;;5.30;;
21769;SDS011;11046;49.558;8.674;2023-07-02T04:33:24;13.95;;;5.22;;
21769;SDS011;11046;49.558;8.674;2023-07-02T04:36:25;13.15;;;5.05;;
21769;SDS011;11046;49.558;8.674;2023-07-02T04:39:25;10.88;;;4.70;;
21769;SDS011;11046;49.558;8.674;2023-07-02T04:42:26;10.50;;;4.70;;
21769;SDS011;11046;49.558;8.674;2023-07-02T04:45:32;9.65;;;4.97;;
21769;SDS011;11046;49.558;8.674;2023-07-02T04:48:36;11.40;;;5.32;;
21769;SDS011;11046;49.558;8.674;2023-07-02T04:51:36;10.65;;;5.07;;
21769;SDS011;11046;49.558;8.674;2023-07-02T04:54:37;14.07;;;5.80;;
21769;SDS011;11046;49.558;8.674;2023-07-02T04:57:38;9.63;;;5.20;;
21769;SDS011;11046;49.558;8.674;2023-07-02T05:00:38;11.93;;;5.40;;
21769;SDS011;11046;49.558;8.674;2023-07-02T05:03:39;10.82;;;5.80;;
21769;SDS011;11046;49.558;8.674;2023-07-02T05:06:39;12.18;;;5.07;;
21769;SDS011;11046;49.558;8.674;2023-07-02T05:09:40;10.48;;;5.10;;
21769;SDS011;11046;49.558;8.674;2023-07-02T05:12:41;12.10;;;4.82;;
21769;SDS011;11046;49.558;8.674;2023-07-02T05:15:41;11.20;;;5.38;;
21769;SDS011;11046;49.558;8.674;2023-07-02T05:18:42;12.38;;;5.07;;
21769;SDS011;11046;49.558;8.674;2023-07-02T05:21:50;10.88;;;4.80;;
21769;SDS011;11046;49.558;8.674;2023-07-02T05:24:51;10.60;;;4.72;;
21769;SDS011;11046;49.558;8.674;2023-07-02T05:27:52;9.35;;;4.93;;
21769;SDS011;11046;49.558;8.674;2023-07-02T05:30:52;13.52;;;5.95;;
21769;SDS011;11046;49.558;8.674;2023-07-02T05:33:53;11.90;;;5.40;;
21769;SDS011;11046;49.558;8.674;2023-07-02T05:36:54;12.85;;;5.47;;
21769;SDS011;11046;49.558;8.674;2023-07-02T05:39:55;11.15;;;5.90;;
21769;SDS011;11046;49.558;8.674;2023-07-02T05:42:55;11.60;;;5.88;;
21769;SDS011;11046;49.558;8.674;2023-07-02T05:45:57;12.70;;;6.50;;
21769;SDS011;11046;49.558;8.674;2023-07-02T05:49:00;13.60;;;6.90;;
21769;SDS011;11046;49.558;8.674;2023-07-02T05:52:00;16.13;;;6.47;;
21769;SDS011;11046;49.558;8.674;2023-07-02T05:55:01;14.82;;;6.72;;
21769;SDS011;11046;49.558;8.674;2023-07-02T05:58:02;13.30;;;6.32;;
21769;SDS011;11046;49.558;8.674;2023-07-02T06:01:03;15.00;;;7.22;;
21769;SDS011;11046;49.558;8.674;2023-07-02T06:04:05;13.38;;;6.78;;
21769;SDS011;11046;49.558;8.674;2023-07-02T06:07:05;13.60;;;6.88;;
21769;SDS011;11046;49.558;8.674;2023-07-02T06:10:07;14.07;;;7.05;;
21769;SDS011;11046;49.558;8.674;2023-07-02T06:13:07;14.93;;;7.07;;
21769;SDS011;11046;49.558;8.674;2023-07-02T06:16:08;14.32;;;6.18;;
21769;SDS011;11046;49.558;8.674;2023-07-02T06:19:09;17.73;;;6.45;;
21769;SDS011;11046;49.558;8.674;2023-07-02T06:22:09;17.73;;;6.38;;
21769;SDS011;11046;49.558;8.674;2023-07-02T06:25:10;12.88;;;6.95;;
21769;SDS011;11046;49.558;8.674;2023-07-02T06:28:10;15.98;;;6.72;;
21769;SDS011;11046;49.558;8.674;2023-07-02T06:31:11;14.88;;;7.10;;
21769;SDS011;11046;49.558;8.674;2023-07-02T06:34:12;15.15;;;8.05;;
21769;SDS011;11046;49.558;8.674;2023-07-02T06:37:14;14.25;;;7.07;;
21769;SDS011;11046;49.558;8.674;2023-07-02T06:40:14;13.07;;;7.38;;
21769;SDS011;11046;49.558;8.674;2023-07-02T06:43:15;13.65;;;6.50;;
21769;SDS011;11046;49.558;8.674;2023-07-02T06:46:16;12.93;;;6.85;;
21769;SDS011;11046;49.558;8.674;2023-07-02T06:49:16;15.95;;;6.93;;
21769;SDS011;11046;49.558;8.674;2023-07-02T06:52:17;15.05;;;7.20;;
21769;SDS011;11046;49.558;8.674;2023-07-02T06:55:17;15.15;;;7.13;;
21769;SDS011;11046;49.558;8.674;2023-07-02T06:58:18;12.90;;;7.60;;
21769;SDS011;11046;49.558;8.674;2023-07-02T07:01:19;16.50;;;7.78;;
21769;SDS011;11046;49.558;8.674;2023-07-02T07:04:20;13.38;;;7.15;;
21769;SDS011;11046;49.558;8.674;2023-07-02T07:07:20;14.43;;;7.50;;
21769;SDS011;11046;49.558;8.674;2023-07-02T07:10:21;17.15;;;7.65;;
21769;SDS011;11046;49.558;8.674;2023-07-02T07:13:22;15.82;;;7.78;;
21769;SDS011;11046;49.558;8.674;2023-07-02T07:16:22;15.70;;;7.68;;
21769;SDS011;11046;49.558;8.674;2023-07-02T07:19:23;16.77;;;7.88;;
21769;SDS011;11046;49.558;8.674;2023-07-02T07:22:23;15.30;;;8.10;;
21769;SDS011;11046;49.558;8.674;2023-07-02T07:25:24;13.52;;;7.50;;
21769;SDS011;11046;49.558;8.674;2023-07-02T07:28:26;18.92;;;7.78;;
21769;SDS011;11046;49.558;8.674;2023-07-02T07:31:27;14.00;;;7.80;;
21769;SDS011;11046;49.558;8.674;2023-07-02T07:34:27;19.38;;;8.40;;
21769;SDS011;11046;49.558;8.674;2023-07-02T07:37:28;12.30;;;7.13;;
21769;SDS011;11046;49.558;8.674;2023-07-02T07:40:28;14.57;;;8.02;;
21769;SDS011;11046;49.558;8.674;2023-07-02T07:43:29;14.38;;;7.70;;
21769;SDS011;11046;49.558;8.674;2023-07-02T07:46:29;12.55;;;7.50;;
21769;SDS011;11046;49.558;8.674;2023-07-02T07:49:30;12.35;;;6.97;;
21769;SDS011;11046;49.558;8.674;2023-07-02T07:52:31;13.75;;;7.78;;
21769;SDS011;11046;49.558;8.674;2023-07-02T07:55:31;14.30;;;7.05;;
21769;SDS011;11046;49.558;8.674;2023-07-02T07:58:32;15.85;;;8.13;;
21769;SDS011;11046;49.558;8.674;2023-07-02T08:01:32;15.00;;;8.45;;
21769;SDS011;11046;49.558;8.674;2023-07-02T08:04:33;16.23;;;8.50;;
21769;SDS011;11046;49.558;8.674;2023-07-02T08:07:33;15.48;;;8.52;;
21769;SDS011;11046;49.558;8.674;2023-07-02T08:10:34;15.60;;;8.68;;
21769;SDS011;11046;49.558;8.674;2023-07-02T08:13:35;17.48;;;9.25;;
21769;SDS011;11046;49.558;8.674;2023-07-02T08:16:35;21.15;;;10.20;;
21769;SDS011;11046;49.558;8.674;2023-07-02T08:19:36;17.50;;;9.20;;
21769;SDS011;11046;49.558;8.674;2023-07-02T08:22:40;18.35;;;8.82;;
21769;SDS011;11046;49.558;8.674;2023-07-02T08:25:40;18.92;;;9.05;;
21769;SDS011;11046;49.558;8.674;2023-07-02T08:28:41;18.13;;;9.50;;
21769;SDS011;11046;49.558;8.674;2023-07-02T08:31:41;20.15;;;9.02;;
21769;SDS011;11046;49.558;8.674;2023-07-02T08:34:43;16.85;;;8.35;;
21769;SDS011;11046;49.558;8.674;2023-07-02T08:37:43;16.42;;;7.68;;
21769;SDS011;11046;49.558;8.674;2023-07-02T08:40:44;18.20;;;8.88;;
21769;SDS011;11046;49.558;8.674;2023-07-02T08:43:44;17.52;;;8.63;;
21769;SDS011;11046;49.558;8.674;2023-07-02T08:46:45;17.52;;;9.48;;
21769;SDS011;11046;49.558;8.674;2023-07-02T08:49:48;22.77;;;10.15;;
21769;SDS011;11046;49.558;8.674;2023-07-02T08:52:48;17.30;;;9.38;;
21769;SDS011;11046;49.558;8.674;2023-07-02T08:55:49;20.10;;;9.80;;
21769;SDS011;11046;49.558;8.674;2023-07-02T08:58:50;18.85;;;9.38;;
21769;SDS011;11046;49.558;8.674;2023-07-02T09:01:51;18.73;;;8.80;;
21769;SDS011;11046;49.558;8.674;2023-07-02T09:04:58;20.08;;;9.50;;
21769;SDS011;11046;49.558;8.674;2023-07-02T09:07:59;17.55;;;9.10;;
21769;SDS011;11046;49.558;8.674;2023-07-02T09:11:10;17.48;;;9.60;;
21769;SDS011;11046;49.558;8.674;2023-07-02T09:14:11;17.92;;;9.60;;
21769;SDS011;11046;49.558;8.674;2023-07-02T09:17:12;18.50;;;10.25;;
21769;SDS011;11046;49.558;8.674;2023-07-02T09:20:13;16.77;;;9.27;;
21769;SDS011;11046;49.558;8.674;2023-07-02T09:23:13;17.35;;;8.35;;
21769;SDS011;11046;49.558;8.674;2023-07-02T09:26:20;21.92;;;10.35;;
21769;SDS011;11046;49.558;8.674;2023-07-02T09:32:25;20.20;;;10.35;;
21769;SDS011;11046;49.558;8.674;2023-07-02T09:35:26;21.92;;;10.50;;
21769;SDS011;11046;49.558;8.674;2023-07-02T09:38:27;18.83;;;10.07;;
21769;SDS011;11046;49.558;8.674;2023-07-02T09:41:27;21.13;;;10.70;;
21769;SDS011;11046;49.558;8.674;2023-07-02T09:44:32;18.23;;;9.30;;
21769;SDS011;11046;49.558;8.674;2023-07-02T09:47:33;16.05;;;9.38;;
21769;SDS011;11046;49.558;8.674;2023-07-02T09:50:37;18.90;;;10.55;;
21769;SDS011;11046;49.558;8.674;2023-07-02T09:53:38;19.90;;;10.38;;
21769;SDS011;11046;49.558;8.674;2023-07-02T09:56:39;20.42;;;11.40;;
21769;SDS011;11046;49.558;8.674;2023-07-02T09:59:40;21.08;;;10.98;;
21769;SDS011;11046;49.558;8.674;2023-07-02T10:02:41;19.42;;;10.63;;
21769;SDS011;11046;49.558;8.674;2023-07-02T10:05:47;20.67;;;10.10;;
21769;SDS011;11046;49.558;8.674;2023-07-02T10:08:54;19.50;;;9.68;;
21769;SDS011;11046;49.558;8.674;2023-07-02T10:11:55;16.98;;;10.38;;
21769;SDS011;11046;49.558;8.674;2023-07-02T10:14:57;19.35;;;10.27;;
21769;SDS011;11046;49.558;8.674;2023-07-02T10:17:59;20.48;;;9.77;;
21769;SDS011;11046;49.558;8.674;2023-07-02T10:21:12;17.77;;;10.38;;
21769;SDS011;11046;49.558;8.674;2023-07-02T10:24:17;21.35;;;11.43;;
21769;SDS011;11046;49.558;8.674;2023-07-02T10:27:18;20.20;;;10.50;;
21769;SDS011;11046;49.558;8.674;2023-07-02T10:30:18;20.77;;;11.55;;
21769;SDS011;11046;49.558;8.674;2023-07-02T10:33:30;19.08;;;10.95;;
21769;SDS011;11046;49.558;8.674;2023-07-02T10:36:30;19.65;;;11.30;;
21769;SDS011;11046;49.558;8.674;2023-07-02T10:39:31;16.70;;;10.52;;
21769;SDS011;11046;49.558;8.674;2023-07-02T10:42:32;20.15;;;10.85;;
21769;SDS011;11046;49.558;8.674;2023-07-02T10:45:34;18.95;;;10.73;;
21769;SDS011;11046;49.558;8.674;2023-07-02T10:48:36;19.17;;;11.00;;
21769;SDS011;11046;49.558;8.674;2023-07-02T10:51:36;19.42;;;11.32;;
21769;SDS011;11046;49.558;8.674;2023-07-02T10:54:41;20.42;;;11.23;;
21769;SDS011;11046;49.558;8.674;2023-07-02T10:57:46;22.08;;;11.52;;
21769;SDS011;11046;49.558;8.674;2023-07-02T11:00:48;21.45;;;11.27;;
21769;SDS011;11046;49.558;8.674;2023-07-02T11:03:57;23.02;;;12.32;;
21769;SDS011;11046;49.558;8.674;2023-07-02T11:07:02;20.80;;;11.52;;
21769;SDS011;11046;49.558;8.674;2023-07-02T11:10:03;23.83;;;12.07;;
21769;SDS011;11046;49.558;8.674;2023-07-02T11:13:17;24.70;;;12.90;;
21769;SDS011;11046;49.558;8.674;2023-07-02T11:16:26;23.25;;;12.40;;
21769;SDS011;11046;49.558;8.674;2023-07-02T11:19:28;22.55;;;12.18;;
21769;SDS011;11046;49.558;8.674;2023-07-02T11:22:32;24.05;;;11.60;;
21769;SDS011;11046;49.558;8.674;2023-07-02T11:25:33;26.25;;;12.15;;
21769;SDS011;11046;49.558;8.674;2023-07-02T11:28:34;21.23;;;12.25;;
21769;SDS011;11046;49.558;8.674;2023-07-02T11:31:34;22.83;;;11.63;;
21769;SDS011;11046;49.558;8.674;2023-07-02T11:34:35;22.95;;;12.07;;
21769;SDS011;11046;49.558;8.674;2023-07-02T11:37:36;23.10;;;11.57;;
21769;SDS011;11046;49.558;8.674;2023-07-02T11:40:37;21.30;;;12.02;;
21769;SDS011;11046;49.558;8.674;2023-07-02T11:43:37;23.00;;;12.00;;
21769;SDS011;11046;49.558;8.674;2023-07-02T11:46:38;20.15;;;11.60;;
21769;SDS011;11046;49.558;8.674;2023-07-02T11:49:39;21.60;;;11.35;;
21769;SDS011;11046;49.558;8.674;2023-07-02T11:52:39;20.52;;;11.43;;
21769;SDS011;11046;49.558;8.674;2023-07-02T11:55:40;20.85;;;11.40;;
21769;SDS011;11046;49.558;8.674;2023-07-02T11:58:41;21.25;;;11.48;;
21769;SDS011;11046;49.558;8.674;2023-07-02T12:01:43;21.52;;;11.98;;
21769;SDS011;11046;49.558;8.674;2023-07-02T12:04:43;21.67;;;12.73;;
21769;SDS011;11046;49.558;8.674;2023-07-02T12:07:44;23.42;;;12.80;;
21769;SDS011;11046;49.558;8.674;2023-07-02T12:10:44;60.10;;;14.48;;
21769;SDS011;11046;49.558;8.674;2023-07-02T12:13:45;20.85;;;11.88;;
21769;SDS011;11046;49.558;8.674;2023-07-02T12:16:46;21.52;;;11.63;;
21769;SDS011;11046;49.558;8.674;2023-07-02T12:19:46;21.45;;;12.05;;
21769;SDS011;11046;49.558;8.674;2023-07-02T12:22:47;21.10;;;11.70;;
21769;SDS011;11046;49.558;8.674;2023-07-02T12:25:47;17.75;;;10.07;;
21769;SDS011;11046;49.558;8.674;2023-07-02T12:28:48;16.42;;;10.05;;
21769;SDS011;11046;49.558;8.674;2023-07-02T12:31:48;19.33;;;11.20;;
21769;SDS011;11046;49.558;8.674;2023-07-02T12:34:49;25.73;;;11.90;;
21769;SDS011;11046;49.558;8.674;2023-07-02T12:37:50;20.00;;;11.50;;
21769;SDS011;11046;49.558;8.674;2023-07-02T12:40:52;23.45;;;11.50;;
21769;SDS011;11046;49.558;8.674;2023-07-02T12:43:52;18.92;;;11.13;;
21769;SDS011;11046;49.558;8.674;2023-07-02T12:46:53;19.48;;;11.02;;
21769;SDS011;11046;49.558;8.674;2023-07-02T12:49:54;22.65;;;11.30;;
21769;SDS011;11046;49.558;8.674;2023-07-02T12:52:54;22.80;;;11.93;;
21769;SDS011;11046;49.558;8.674;2023-07-02T12:55:55;20.50;;;11.40;;
21769;SDS011;11046;49.558;8.674;2023-07-02T12:58:55;20.33;;;11.35;;
21769;SDS011;11046;49.558;8.674;2023-07-02T13:01:56;20.13;;;11.07;;
21769;SDS011;11046;49.558;8.674;2023-07-02T13:04:56;20.13;;;11.25;;
21769;SDS011;11046;49.558;8.674;2023-07-02T13:07:57;25.52;;;12.18;;
21769;SDS011;11046;49.558;8.674;2023-07-02T13:10:57;22.20;;;11.20;;
21769;SDS011;11046;49.558;8.674;2023-07-02T13:13:58;20.20;;;11.48;;
21769;SDS011;11046;49.558;8.674;2023-07-02T13:16:59;19.70;;;10.95;;
21769;SDS011;11046;49.558;8.674;2023-07-02T13:20:00;20.92;;;11.60;;
21769;SDS011;11046;49.558;8.674;2023-07-02T13:23:00;20.50;;;11.25;;
21769;SDS011;11046;49.558;8.674;2023-07-02T13:26:03;18.55;;;10.73;;
21769;SDS011;11046;49.558;8.674;2023-07-02T13:29:03;19.95;;;11.48;;
21769;SDS011;11046;49.558;8.674;2023-07-02T13:32:04;22.00;;;11.88;;
21769;SDS011;11046;49.558;8.674;2023-07-02T13:35:05;23.58;;;11.68;;
21769;SDS011;11046;49.558;8.674;2023-07-02T13:38:06;22.83;;;11.35;;
21769;SDS011;11046;49.558;8.674;2023-07-02T13:41:06;19.52;;;11.07;;
21769;SDS011;11046;49.558;8.674;2023-07-02T13:44:07;21.25;;;11.63;;
21769;SDS011;11046;49.558;8.674;2023-07-02T13:47:08;23.77;;;10.75;;
21769;SDS011;11046;49.558;8.674;2023-07-02T13:50:09;18.27;;;10.30;;
21769;SDS011;11046;49.558;8.674;2023-07-02T13:53:09;22.70;;;11.05;;
21769;SDS011;11046;49.558;8.674;2023-07-02T13:56:10;18.75;;;11.52;;
21769;SDS011;11046;49.558;8.674;2023-07-02T13:59:11;21.52;;;12.07;;
21769;SDS011;11046;49.558;8.674;2023-07-02T14:02:11;20.08;;;11.30;;
21769;SDS011;11046;49.558;8.674;2023-07-02T14:05:12;18.58;;;10.90;;
21769;SDS011;11046;49.558;8.674;2023-07-02T14:08:12;22.10;;;11.43;;
21769;SDS011;11046;49.558;8.674;2023-07-02T14:11:13;22.50;;;11.32;;
21769;SDS011;11046;49.558;8.674;2023-07-02T14:14:14;18.73;;;10.55;;
21769;SDS011;11046;49.558;8.674;2023-07-02T14:17:14;22.20;;;12.23;;
21769;SDS011;11046;49.558;8.674;2023-07-02T14:20:15;21.48;;;11.35;;
21769;SDS011;11046;49.558;8.674;2023-07-02T14:23:16;24.00;;;12.20;;
21769;SDS011;11046;49.558;8.674;2023-07-02T14:26:16;22.27;;;11.70;;
21769;SDS011;11046;49.558;8.674;2023-07-02T14:29:17;21.58;;;11.05;;
21769;SDS011;11046;49.558;8.674;2023-07-02T14:32:18;18.98;;;11.25;;
21769;SDS011;11046;49.558;8.674;2023-07-02T14:35:18;20.42;;;11.60;;
21769;SDS011;11046;49.558;8.674;2023-07-02T14:38:22;20.35;;;11.70;;
21769;SDS011;11046;49.558;8.674;2023-07-02T14:41:23;24.05;;;11.40;;
21769;SDS011;11046;49.558;8.674;2023-07-02T14:44:23;22.13;;;11.70;;
21769;SDS011;11046;49.558;8.674;2023-07-02T14:47:24;21.70;;;11.65;;
21769;SDS011;11046;49.558;8.674;2023-07-02T14:50:25;21.13;;;11.30;;
21769;SDS011;11046;49.558;8.674;2023-07-02T14:53:27;25.55;;;11.45;;
21769;SDS011;11046;49.558;8.674;2023-07-02T14:56:28;18.83;;;11.18;;
21769;SDS011;11046;49.558;8.674;2023-07-02T14:59:29;19.52;;;11.35;;
21769;SDS011;11046;49.558;8.674;2023-07-02T15:02:30;17.83;;;11.55;;
21769;SDS011;11046;49.558;8.674;2023-07-02T15:05:31;21.60;;;11.68;;
21769;SDS011;11046;49.558;8.674;2023-07-02T15:08:31;23.67;;;10.65;;
21769;SDS011;11046;49.558;8.674;2023-07-02T15:11:33;22.45;;;11.45;;
21769;SDS011;11046;49.558;8.674;2023-07-02T15:14:34;20.38;;;10.88;;
21769;SDS011;11046;49.558;8.674;2023-07-02T15:17:34;20.15;;;11.30;;
21769;SDS011;11046;49.558;8.674;2023-07-02T15:20:35;21.10;;;11.00;;
21769;SDS011;11046;49.558;8.674;2023-07-02T15:23:36;21.30;;;11.15;;
21769;SDS011;11046;49.558;8.674;2023-07-02T15:26:36;20.58;;;10.93;;
21769;SDS011;11046;49.558;8.674;2023-07-02T15:29:37;25.00;;;11.65;;
21769;SDS011;11046;49.558;8.674;2023-07-02T15:32:38;21.98;;;11.88;;
21769;SDS011;11046;49.558;8.674;2023-07-02T15:35:38;20.15;;;10.85;;
21769;SDS011;11046;49.558;8.674;2023-07-02T15:38:39;21.33;;;10.80;;
21769;SDS011;11046;49.558;8.674;2023-07-02T15:41:40;20.23;;;11.40;;
21769;SDS011;11046;49.558;8.674;2023-07-02T15:44:43;21.27;;;11.15;;
21769;SDS011;11046;49.558;8.674;2023-07-02T15:47:44;21.25;;;11.05;;
21769;SDS011;11046;49.558;8.674;2023-07-02T15:50:45;27.20;;;11.75;;
21769;SDS011;11046;49.558;8.674;2023-07-02T15:53:45;20.92;;;11.52;;
21769;SDS011;11046;49.558;8.674;2023-07-02T15:56:46;22.30;;;11.43;;
21769;SDS011;11046;49.558;8.674;2023-07-02T15:59:46;20.45;;;10.90;;
21769;SDS011;11046;49.558;8.674;2023-07-02T16:02:47;23.23;;;11.70;;
21769;SDS011;11046;49.558;8.674;2023-07-02T16:05:47;25.50;;;11.93;;
21769;SDS011;11046;49.558;8.674;2023-07-02T16:08:48;21.60;;;11.93;;
21769;SDS011;11046;49.558;8.674;2023-07-02T16:11:49;19.50;;;11.07;;
21769;SDS011;11046;49.558;8.674;2023-07-02T16:14:49;20.13;;;11.40;;
21769;SDS011;11046;49.558;8.674;2023-07-02T16:17:50;19.42;;;11.13;;
21769;SDS011;11046;49.558;8.674;2023-07-02T16:20:55;21.98;;;11.98;;
21769;SDS011;11046;49.558;8.674;2023-07-02T16:23:57;23.60;;;11.57;;
21769;SDS011;11046;49.558;8.674;2023-07-02T16:26:58;21.63;;;11.80;;
21769;SDS011;11046;49.558;8.674;2023-07-02T16:29:59;21.52;;;11.55;;
21769;SDS011;11046;49.558;8.674;2023-07-02T16:33:00;21.08;;;11.13;;
21769;SDS011;11046;49.558;8.674;2023-07-02T16:36:02;22.75;;;11.63;;
21769;SDS011;11046;49.558;8.674;2023-07-02T16:39:05;22.35;;;12.52;;
21769;SDS011;11046;49.558;8.674;2023-07-02T16:42:05;20.52;;;11.48;;
21769;SDS011;11046;49.558;8.674;2023-07-02T16:45:07;17.58;;;10.77;;
21769;SDS011;11046;49.558;8.674;2023-07-02T16:48:08;20.20;;;11.32;;
21769;SDS011;11046;49.558;8.674;2023-07-02T16:51:09;20.90;;;11.48;;
21769;SDS011;11046;49.558;8.674;2023-07-02T16:54:10;21.58;;;11.35;;
21769;SDS011;11046;49.558;8.674;2023-07-02T16:57:15;24.48;;;12.20;;
21769;SDS011;11046;49.558;8.674;2023-07-02T17:00:15;21.58;;;11.68;;
21769;SDS011;11046;49.558;8.674;2023-07-02T17:03:16;25.55;;;11.88;;
21769;SDS011;11046;49.558;8.674;2023-07-02T17:06:17;24.10;;;11.95;;
21769;SDS011;11046;49.558;8.674;2023-07-02T17:12:21;23.05;;;11.38;;
21769;SDS011;11046;49.558;8.674;2023-07-02T17:15:22;21.77;;;11.38;;
21769;SDS011;11046;49.558;8.674;2023-07-02T17:18:22;22.15;;;11.60;;
21769;SDS011;11046;49.558;8.674;2023-07-02T17:21:23;22.33;;;12.07;;
21769;SDS011;11046;49.558;8.674;2023-07-02T17:24:24;21.38;;;10.77;;
21769;SDS011;11046;49.558;8.674;2023-07-02T17:27:28;19.77;;;11.38;;
21769;SDS011;11046;49.558;8.674;2023-07-02T17:30:29;27.83;;;13.00;;
21769;SDS011;11046;49.558;8.674;2023-07-02T17:33:30;24.70;;;11.68;;
21769;SDS011;11046;49.558;8.674;2023-07-02T17:36:30;22.70;;;10.82;;
21769;SDS011;11046;49.558;8.674;2023-07-02T17:39:32;23.85;;;12.63;;
21769;SDS011;11046;49.558;8.674;2023-07-02T17:42:34;22.50;;;11.65;;
21769;SDS011;11046;49.558;8.674;2023-07-02T17:45:35;19.50;;;10.88;;
21769;SDS011;11046;49.558;8.674;2023-07-02T17:48:35;20.85;;;11.40;;
21769;SDS011;11046;49.558;8.674;2023-07-02T17:51:36;21.00;;;11.02;;
21769;SDS011;11046;49.558;8.674;2023-07-02T17:54:41;21.25;;;11.45;;
21769;SDS011;11046;49.558;8.674;2023-07-02T17:57:43;21.45;;;11.18;;